createdAt,value
2023-01-26T01:28:01.955Z,101440.95
2023-01-26T01:30:34.590Z,101434.53
2023-01-26T01:33:07.335Z,101425.62
2023-01-26T01:35:39.959Z,101433.55
2023-01-26T01:38:12.324Z,101428.59
2023-01-26T01:40:45.415Z,101424.48
2023-01-26T01:43:17.922Z,101415.61
2023-01-26T01:45:51.960Z,101412.83
2023-01-26T01:48:59.008Z,101416.34
2023-01-26T01:51:41.164Z,101404.66
2023-01-26T01:54:18.192Z,101402.36
2023-01-26T01:56:53.895Z,101397.80
2023-01-26T01:59:27.805Z,101397.03
2023-01-26T02:02:00.312Z,101395.28
2023-01-26T02:04:33.063Z,101393.17
2023-01-26T02:07:07.194Z,101394.95
2023-01-26T02:09:59.326Z,101386.36
2023-01-26T02:12:53.511Z,101386.81
2023-01-26T02:15:25.906Z,101380.48
2023-01-26T02:17:58.599Z,101374.25
2023-01-26T02:20:38.655Z,101372.88
2023-01-26T02:23:41.615Z,101376.33
2023-01-26T02:26:21.213Z,101367.81
2023-01-26T02:28:55.748Z,101370.52
2023-01-26T02:31:28.413Z,101363.84
2023-01-26T02:34:00.980Z,101363.81
2023-01-26T02:36:59.279Z,101362.40
2023-01-26T02:39:54.952Z,101359.28
2023-01-26T02:42:39.502Z,101362.80
2023-01-26T02:45:16.591Z,101355.28
2023-01-26T02:47:49.705Z,101355.21
2023-01-26T02:50:22.736Z,101345.39
2023-01-26T02:52:55.258Z,101344.42
2023-01-26T02:55:28.982Z,101333.31
2023-01-26T02:58:05.019Z,101325.44
2023-01-26T03:00:40.208Z,101331.81
2023-01-26T03:03:18.967Z,101328.56
2023-01-26T03:05:51.969Z,101330.50
2023-01-26T03:08:24.511Z,101326.13
2023-01-26T03:10:57.126Z,101324.43
2023-01-26T03:13:29.689Z,101328.47
2023-01-26T03:16:04.879Z,101328.43
2023-01-26T03:18:56.512Z,101319.06
2023-01-26T03:21:46.713Z,101321.28
2023-01-26T03:24:37.106Z,101316.52
2023-01-26T03:27:29.856Z,101316.59
2023-01-26T03:30:04.117Z,101315.45
2023-01-26T03:32:37.661Z,101316.37
2023-01-26T03:35:13.216Z,101315.81
2023-01-26T03:37:46.185Z,101314.88
2023-01-26T03:40:39.238Z,101308.15
2023-01-26T03:43:29.774Z,101307.14
2023-01-26T03:46:25.362Z,101297.73
2023-01-26T03:49:16.739Z,101295.93
2023-01-26T03:52:08.387Z,101290.75
2023-01-26T03:54:59.675Z,101305.41
2023-01-26T03:57:32.056Z,101303.15
2023-01-26T04:00:04.990Z,101299.55
2023-01-26T04:02:57.223Z,101301.73
2023-01-26T04:05:47.796Z,101303.06
2023-01-26T04:08:27.896Z,101311.87
2023-01-26T04:11:02.072Z,101312.36
2023-01-26T04:13:52.528Z,101319.88
2023-01-26T04:16:47.368Z,101323.43
2023-01-26T04:19:38.057Z,101317.58
2023-01-26T04:22:12.973Z,101326.39
2023-01-26T04:24:47.831Z,101320.53
2023-01-26T04:27:20.915Z,101330.56
2023-01-26T04:29:53.595Z,101325.23
2023-01-26T04:32:27.889Z,101317.11
2023-01-26T04:35:00.412Z,101317.03
2023-01-26T04:37:33.706Z,101313.88
2023-01-26T04:40:29.140Z,101316.59
2023-01-26T04:43:01.984Z,101321.06
2023-01-26T04:45:34.501Z,101318.85
2023-01-26T04:48:08.240Z,101316.66
2023-01-26T04:50:40.664Z,101318.81
2023-01-26T04:53:13.309Z,101320.02
2023-01-26T04:55:47.030Z,101316.42
2023-01-26T04:58:19.628Z,101302.56
2023-01-26T05:00:59.325Z,101301.16
2023-01-26T05:03:31.805Z,101304.23
2023-01-26T05:06:04.883Z,101303.33
2023-01-26T05:08:38.694Z,101298.41
2023-01-26T05:11:11.503Z,101300.98
2023-01-26T05:13:55.122Z,101299.66
2023-01-26T05:16:28.915Z,101299.70
2023-01-26T05:19:08.912Z,101294.00
2023-01-26T05:21:43.081Z,101299.33
2023-01-26T05:24:17.157Z,101295.73
2023-01-26T05:27:22.575Z,101290.00
2023-01-26T05:29:58.637Z,101289.19
2023-01-26T05:32:31.000Z,101295.50
2023-01-26T05:35:03.367Z,101297.31
2023-01-26T05:37:36.952Z,101299.58
2023-01-26T05:40:30.524Z,101294.61
2023-01-26T05:43:03.304Z,101294.65
2023-01-26T05:45:49.644Z,101289.36
2023-01-26T05:48:22.841Z,101296.50
2023-01-26T05:50:58.781Z,101300.55
2023-01-26T05:53:31.394Z,101292.06
2023-01-26T05:56:04.069Z,101293.03
2023-01-26T05:58:38.877Z,101291.41
2023-01-26T06:01:11.627Z,101296.83
2023-01-26T06:03:45.765Z,101303.38
2023-01-26T06:06:18.551Z,101300.19
2023-01-26T06:08:55.405Z,101298.81
2023-01-26T06:11:38.043Z,101297.39
2023-01-26T06:14:15.141Z,101303.20
2023-01-26T06:16:47.692Z,101297.44
2023-01-26T06:19:21.067Z,101297.39
2023-01-26T06:21:55.628Z,101299.66
2023-01-26T06:24:28.751Z,101309.92
2023-01-26T06:27:01.300Z,101301.03
2023-01-26T06:29:34.794Z,101304.11
2023-01-26T06:32:08.019Z,101308.06
2023-01-26T06:34:41.056Z,101308.06
2023-01-26T06:37:14.154Z,101302.65
2023-01-26T06:39:47.080Z,101303.58
2023-01-26T06:42:19.572Z,101302.65
2023-01-26T06:44:52.798Z,101307.62
2023-01-26T06:47:25.493Z,101306.28
2023-01-26T06:49:58.090Z,101303.25
2023-01-26T06:52:34.317Z,101299.98
2023-01-26T06:55:23.490Z,101311.50
2023-01-26T06:58:06.714Z,101303.09
2023-01-26T07:00:41.600Z,101305.23
2023-01-26T07:03:22.043Z,101306.48
2023-01-26T07:05:54.521Z,101301.48
2023-01-26T07:08:27.783Z,101301.03
2023-01-26T07:11:00.391Z,101306.00
2023-01-26T07:13:33.271Z,101307.86
2023-01-26T07:16:09.133Z,101308.70
2023-01-26T07:18:42.339Z,101304.06
2023-01-26T07:21:19.634Z,101300.50
2023-01-26T07:23:53.427Z,101299.77
2023-01-26T07:26:25.928Z,101300.56
2023-01-26T07:28:58.298Z,101298.07
2023-01-26T07:31:31.448Z,101302.23
2023-01-26T07:34:04.139Z,101305.31
2023-01-26T07:36:36.593Z,101299.89
2023-01-26T07:39:09.991Z,101300.70
2023-01-26T07:41:42.413Z,101295.45
2023-01-26T07:44:16.138Z,101291.66
2023-01-26T07:46:48.613Z,101295.33
2023-01-26T07:49:21.553Z,101291.82
2023-01-26T07:51:54.333Z,101290.00
2023-01-26T07:54:26.735Z,101282.00
2023-01-26T07:56:59.978Z,101286.00
2023-01-26T07:59:33.039Z,101291.33
2023-01-26T08:02:05.499Z,101292.58
2023-01-26T08:04:39.362Z,101289.39
2023-01-26T08:07:12.168Z,101290.23
2023-01-26T08:09:44.570Z,101294.07
2023-01-26T08:12:17.090Z,101291.28
2023-01-26T08:14:49.997Z,101291.59
2023-01-26T08:17:22.484Z,101293.66
2023-01-26T08:19:54.899Z,101290.09
2023-01-26T08:22:27.816Z,101297.61
2023-01-26T08:25:00.191Z,101290.49
2023-01-26T08:27:33.158Z,101291.37
2023-01-26T08:30:07.016Z,101300.72
2023-01-26T08:32:39.253Z,101291.73
2023-01-26T08:35:12.266Z,101281.52
2023-01-26T08:37:44.727Z,101280.63
2023-01-26T08:40:17.729Z,101274.67
2023-01-26T08:42:50.189Z,101278.13
2023-01-26T08:45:22.807Z,101266.63
2023-01-26T08:47:55.962Z,101270.58
2023-01-26T08:50:28.965Z,101267.33
2023-01-26T08:53:01.302Z,101266.39
2023-01-26T08:55:35.549Z,101264.04
2023-01-26T08:58:08.624Z,101267.91
2023-01-26T09:00:41.275Z,101264.36
2023-01-26T09:03:14.272Z,101256.34
2023-01-26T09:05:47.184Z,101256.30
2023-01-26T09:08:20.008Z,101259.02
2023-01-26T09:11:06.399Z,101259.45
2023-01-26T09:13:39.307Z,101252.34
2023-01-26T09:16:18.621Z,101256.39
2023-01-26T09:18:57.021Z,101248.73
2023-01-26T09:21:29.568Z,101253.00
2023-01-26T09:24:02.667Z,101257.94
2023-01-26T09:26:36.872Z,101251.02
2023-01-26T09:29:10.696Z,101251.38
2023-01-26T09:31:43.263Z,101253.86
2023-01-26T09:34:16.457Z,101244.94
2023-01-26T09:36:48.852Z,101248.02
2023-01-26T09:39:21.483Z,101240.84
2023-01-26T09:42:05.215Z,101235.80
2023-01-26T09:44:42.844Z,101232.35
2023-01-26T09:47:34.986Z,101224.97
2023-01-26T09:50:17.392Z,101226.45
2023-01-26T09:53:01.598Z,101228.69
2023-01-26T09:55:34.082Z,101222.98
2023-01-26T09:58:17.015Z,101225.34
2023-01-26T10:00:54.349Z,101221.38
2023-01-26T10:03:48.660Z,101221.84
2023-01-26T10:06:41.678Z,101217.16
2023-01-26T10:09:26.102Z,101214.28
2023-01-26T10:12:06.012Z,101209.83
2023-01-26T10:14:49.642Z,101204.98
2023-01-26T10:17:30.088Z,101206.28
2023-01-26T10:20:31.620Z,101210.48
2023-01-26T10:23:30.036Z,101203.13
2023-01-26T10:26:13.224Z,101198.82
2023-01-26T10:28:47.723Z,101189.45
2023-01-26T10:31:23.399Z,101189.24
2023-01-26T10:34:18.007Z,101190.53
2023-01-26T10:36:50.612Z,101182.89
2023-01-26T10:39:24.379Z,101173.81
2023-01-26T10:42:02.247Z,101168.46
2023-01-26T10:44:39.665Z,101160.95
2023-01-26T10:47:21.598Z,101156.70
2023-01-26T10:49:54.332Z,101157.06
2023-01-26T10:52:26.816Z,101161.22
2023-01-26T10:55:20.202Z,101158.61
2023-01-26T10:57:52.580Z,101163.61
2023-01-26T11:00:33.909Z,101161.65
2023-01-26T11:03:16.885Z,101153.15
2023-01-26T11:05:53.732Z,101152.33
2023-01-26T11:08:53.676Z,101155.20
2023-01-26T11:11:28.586Z,101151.94
2023-01-26T11:14:19.439Z,101143.36
2023-01-26T11:17:11.810Z,101140.75
2023-01-26T11:19:58.393Z,101130.48
2023-01-26T11:22:50.895Z,101120.86
2023-01-26T11:25:53.263Z,101131.47
2023-01-26T11:29:13.974Z,101126.53
2023-01-26T11:32:00.236Z,101121.33
2023-01-26T11:34:46.379Z,101125.53
2023-01-26T11:38:04.734Z,101124.91
2023-01-26T11:41:17.854Z,101114.67
2023-01-26T11:44:28.397Z,101127.70
2023-01-26T11:47:05.734Z,101122.43
2023-01-26T11:50:16.273Z,101122.64
2023-01-26T11:53:26.231Z,101114.37
2023-01-26T11:56:21.369Z,101105.66
2023-01-26T11:59:13.096Z,101104.13
2023-01-26T12:01:59.574Z,101105.28
2023-01-26T12:04:36.728Z,101099.52
2023-01-26T12:07:22.649Z,101097.50
2023-01-26T12:09:55.118Z,101097.63
2023-01-26T12:12:45.717Z,101097.50
2023-01-26T12:15:21.699Z,101092.81
2023-01-26T12:18:16.964Z,101085.05
2023-01-26T12:20:55.278Z,101085.81
2023-01-26T12:23:47.390Z,101089.74
2023-01-26T12:26:22.805Z,101083.30
2023-01-26T12:29:23.043Z,101077.61
2023-01-26T12:32:14.311Z,101088.37
2023-01-26T12:34:47.067Z,101084.48
2023-01-26T12:37:48.160Z,101080.47
2023-01-26T12:41:06.832Z,101083.54
2023-01-26T12:44:11.646Z,101083.78
2023-01-26T12:46:48.262Z,101087.13
2023-01-26T12:50:09.946Z,101073.44
2023-01-26T12:52:56.363Z,101073.05
2023-01-26T12:55:42.497Z,101076.51
2023-01-26T12:58:33.710Z,101073.89
2023-01-26T13:01:15.088Z,101074.02
2023-01-26T13:03:58.671Z,101071.39
2023-01-26T13:06:31.588Z,101074.89
2023-01-26T13:09:34.508Z,101072.22
2023-01-26T13:12:08.772Z,101076.41
2023-01-26T13:14:46.067Z,101072.03
2023-01-26T13:17:24.207Z,101068.46
2023-01-26T13:20:00.392Z,101061.41
2023-01-26T13:22:41.650Z,101069.22
2023-01-26T13:25:41.962Z,101074.39
2023-01-26T13:28:15.207Z,101074.11
2023-01-26T13:30:48.016Z,101076.35
2023-01-26T13:33:25.219Z,101075.90
2023-01-26T13:35:57.724Z,101074.67
2023-01-26T13:38:49.306Z,101071.61
2023-01-26T13:41:22.663Z,101061.14
2023-01-26T13:44:10.965Z,101059.69
2023-01-26T13:46:47.948Z,101062.75
2023-01-26T13:49:40.736Z,101066.26
2023-01-26T13:52:25.624Z,101068.05
2023-01-26T13:54:59.209Z,101071.95
2023-01-26T13:57:32.180Z,101070.33
2023-01-26T14:00:05.176Z,101063.24
2023-01-26T14:02:38.991Z,101071.27
2023-01-26T14:05:23.961Z,101061.14
2023-01-26T14:07:55.831Z,101057.84
2023-01-26T14:10:28.114Z,101062.02
2023-01-26T14:13:01.351Z,101056.50
2023-01-26T14:15:35.239Z,101060.69
2023-01-26T14:18:09.823Z,101059.23
2023-01-26T14:20:42.628Z,101056.02
2023-01-26T14:23:19.839Z,101048.54
2023-01-26T14:26:04.621Z,101055.34
2023-01-26T14:28:40.833Z,101058.80
2023-01-26T14:31:23.923Z,101056.24
2023-01-26T14:34:00.548Z,101052.83
2023-01-26T14:36:34.794Z,101050.84
2023-01-26T14:39:20.397Z,101051.55
2023-01-26T14:41:53.368Z,101045.30
2023-01-26T14:44:27.718Z,101047.56
2023-01-26T14:47:10.946Z,101040.22
2023-01-26T14:50:04.865Z,101038.14
2023-01-26T14:52:41.648Z,101036.62
2023-01-26T14:55:30.617Z,101034.55
2023-01-26T14:58:04.167Z,101038.16
2023-01-26T15:00:37.970Z,101037.44
2023-01-26T15:03:36.471Z,101036.20
2023-01-26T15:06:20.619Z,101034.58
2023-01-26T15:09:09.151Z,101044.91
2023-01-26T15:11:59.756Z,101038.79
2023-01-26T15:14:50.483Z,101038.89
2023-01-26T15:17:36.217Z,101033.98
2023-01-26T15:20:29.832Z,101024.68
2023-01-26T15:23:02.149Z,101036.39
2023-01-26T15:25:34.733Z,101031.84
2023-01-26T15:28:08.919Z,101017.41
2023-01-26T15:30:41.561Z,101010.67
2023-01-26T15:33:40.404Z,101010.84
2023-01-26T15:36:29.307Z,101021.97
2023-01-26T15:39:16.530Z,101019.41
2023-01-26T15:42:13.636Z,101029.39
2023-01-26T15:44:46.085Z,101026.78
2023-01-26T15:47:18.587Z,101021.60
2023-01-26T15:49:51.145Z,101021.48
2023-01-26T15:52:28.372Z,101027.66
2023-01-26T15:55:01.407Z,101020.64
2023-01-26T15:57:34.338Z,101026.61
2023-01-26T16:00:08.018Z,101024.98
2023-01-26T16:02:41.398Z,101024.94
2023-01-26T16:05:19.284Z,101028.54
2023-01-26T16:20:43.466Z,101020.00
2023-01-26T16:23:28.843Z,101017.71
2023-01-26T16:26:01.667Z,101017.77
2023-01-26T16:28:35.186Z,101019.50
2023-01-26T16:31:16.332Z,101012.11
2023-01-26T16:33:49.856Z,101012.18
2023-01-26T16:36:23.263Z,101016.63
2023-01-26T16:38:56.013Z,101016.97
2023-01-26T16:41:30.888Z,101012.39
2023-01-26T16:44:04.091Z,101014.41
2023-01-26T16:46:36.614Z,101019.07
2023-01-26T16:49:12.485Z,101022.12
2023-01-26T16:51:45.132Z,101020.61
2023-01-26T16:54:17.986Z,101026.91
2023-01-26T16:56:50.418Z,101022.41
2023-01-26T16:59:23.226Z,101040.54
2023-01-26T17:01:56.266Z,101033.72
2023-01-26T17:04:28.816Z,101031.98
2023-01-26T17:07:01.218Z,101034.09
2023-01-26T17:09:34.073Z,101035.21
2023-01-26T17:12:07.839Z,101031.20
2023-01-26T17:14:40.459Z,101030.16
2023-01-26T17:17:13.296Z,101028.94
2023-01-26T17:19:46.214Z,101022.30
2023-01-26T17:22:19.497Z,101031.72
2023-01-26T17:24:52.098Z,101028.94
2023-01-26T17:27:27.644Z,101019.97
2023-01-26T17:30:04.897Z,101020.80
2023-01-26T17:32:37.882Z,101020.86
2023-01-26T17:35:12.841Z,101025.20
2023-01-26T17:37:45.952Z,101032.83
2023-01-26T17:40:19.502Z,101026.89
2023-01-26T17:42:52.437Z,101032.17
2023-01-26T17:45:26.040Z,101029.11
2023-01-26T17:47:58.954Z,101033.87
2023-01-26T17:50:31.546Z,101033.45
2023-01-26T17:53:04.460Z,101032.59
2023-01-26T17:55:38.595Z,101033.98
2023-01-26T17:58:11.823Z,101035.00
2023-01-26T18:00:45.729Z,101040.29
2023-01-26T18:03:20.676Z,101034.04
2023-01-26T18:05:53.552Z,101026.82
2023-01-26T18:08:26.047Z,101028.53
2023-01-26T18:11:00.793Z,101018.98
2023-01-26T18:13:33.652Z,101018.47
2023-01-26T18:16:11.874Z,101021.03
2023-01-26T18:18:44.876Z,101021.09
2023-01-26T18:21:22.756Z,101017.08
2023-01-26T18:24:01.636Z,101017.08
2023-01-26T18:26:38.340Z,101019.87
2023-01-26T18:29:11.688Z,101020.97
2023-01-26T18:31:44.250Z,101015.68
2023-01-26T18:34:18.466Z,101025.86
2023-01-26T18:36:52.013Z,101021.85
2023-01-26T18:39:24.626Z,101023.24
2023-01-26T18:41:57.771Z,101028.10
2023-01-26T18:44:30.105Z,101019.96
2023-01-26T18:47:02.643Z,101021.89
2023-01-26T18:49:35.910Z,101031.19
2023-01-26T18:52:09.556Z,101018.17
2023-01-26T18:54:42.846Z,101010.45
2023-01-26T18:57:15.554Z,101014.02
2023-01-26T18:59:48.341Z,101018.30
2023-01-26T19:02:21.153Z,101020.27
2023-01-26T19:04:55.238Z,101012.80
2023-01-26T19:07:28.465Z,101011.57
2023-01-26T19:10:00.789Z,101009.58
2023-01-26T19:12:33.707Z,101007.62
2023-01-26T19:15:07.183Z,101008.45
2023-01-26T19:17:42.040Z,101010.46
2023-01-26T19:20:15.316Z,101003.89
2023-01-26T19:22:51.210Z,101006.45
2023-01-26T19:25:26.071Z,101006.91
2023-01-26T19:28:00.301Z,101016.14
2023-01-26T19:30:33.444Z,101022.20
2023-01-26T19:33:23.967Z,101018.02
2023-01-26T19:35:56.989Z,101012.45
2023-01-26T19:38:30.964Z,101008.49
2023-01-26T19:41:03.835Z,101014.23
2023-01-26T19:43:36.507Z,101006.95
2023-01-26T19:46:11.621Z,101011.80
2023-01-26T19:48:44.461Z,101010.91
2023-01-26T19:51:25.144Z,101007.33
2023-01-26T19:53:59.625Z,101002.27
2023-01-26T19:56:36.367Z,101007.39
2023-01-26T19:59:22.496Z,100999.88
2023-01-26T20:01:55.374Z,101001.22
2023-01-26T20:04:28.022Z,101001.45
2023-01-26T20:07:02.842Z,100993.09
2023-01-26T20:09:36.074Z,100992.63
2023-01-26T20:12:10.693Z,100985.84
2023-01-26T20:14:43.822Z,100979.84
2023-01-26T20:17:17.037Z,100975.27
2023-01-26T20:19:49.670Z,100979.50
2023-01-26T20:22:24.119Z,100975.21
2023-01-26T20:24:56.624Z,100972.05
2023-01-26T20:27:30.298Z,100975.16
2023-01-26T20:30:02.875Z,100969.55
2023-01-26T20:32:35.755Z,100971.31
2023-01-26T20:35:09.516Z,100973.50
2023-01-26T20:37:42.293Z,100974.66
2023-01-26T20:40:15.201Z,100975.89
2023-01-26T20:42:50.074Z,100973.22
2023-01-26T20:45:23.533Z,100974.22
2023-01-26T20:47:55.980Z,100975.38
2023-01-26T20:50:30.051Z,100977.51
2023-01-26T20:53:02.661Z,100974.84
2023-01-26T20:55:35.591Z,100970.98
2023-01-26T20:58:08.301Z,100970.98
2023-01-26T21:00:41.008Z,100970.44
2023-01-26T21:03:13.932Z,100968.59
2023-01-26T21:05:46.925Z,100971.26
2023-01-26T21:08:19.551Z,100968.05
2023-01-26T21:10:52.975Z,100968.36
2023-01-26T21:13:27.518Z,100967.81
2023-01-26T21:16:00.617Z,100966.53
2023-01-26T21:18:33.216Z,100965.37
2023-01-26T21:21:07.742Z,100955.17
2023-01-26T21:23:40.657Z,100954.28
2023-01-26T21:26:16.378Z,100952.01
2023-01-26T21:28:55.829Z,100955.17
2023-01-26T21:31:31.089Z,100949.59
2023-01-26T21:34:03.704Z,100954.12
2023-01-26T21:36:36.794Z,100947.21
2023-01-26T21:39:12.439Z,100948.55
2023-01-26T21:41:57.555Z,100948.60
2023-01-26T21:44:35.704Z,100947.16
2023-01-26T21:47:08.417Z,100948.17
2023-01-26T21:49:40.969Z,100941.98
2023-01-26T21:52:31.286Z,100944.71
2023-01-26T21:55:04.410Z,100951.78
2023-01-26T21:57:54.587Z,100941.05
2023-01-26T22:00:28.094Z,100934.70
2023-01-26T22:03:00.900Z,100940.93
2023-01-26T22:05:35.186Z,100940.88
2023-01-26T22:08:09.429Z,100940.98
2023-01-26T22:10:42.268Z,100937.98
2023-01-26T22:13:15.651Z,100940.16
2023-01-26T22:15:48.136Z,100944.11
2023-01-26T22:18:21.444Z,100949.83
2023-01-26T22:20:55.680Z,100942.27
2023-01-26T22:23:27.608Z,100941.87
2023-01-26T22:26:00.644Z,100943.20
2023-01-26T22:28:33.576Z,100935.36
2023-01-26T22:31:07.907Z,100936.16
2023-01-26T22:33:40.360Z,100933.48
2023-01-26T22:36:14.732Z,100926.80
2023-01-26T22:38:47.560Z,100929.47
2023-01-26T22:41:22.691Z,100928.56
2023-01-26T22:43:58.134Z,100922.73
2023-01-26T22:46:31.892Z,100920.50
2023-01-26T22:49:05.173Z,100918.78
2023-01-26T22:51:38.427Z,100910.83
2023-01-26T22:54:10.882Z,100914.50
2023-01-26T22:56:43.444Z,100908.25
2023-01-26T22:59:15.935Z,100904.25
2023-01-26T23:01:49.465Z,100909.59
2023-01-26T23:04:22.439Z,100903.88
2023-01-26T23:06:55.129Z,100907.03
2023-01-26T23:09:27.606Z,100910.33
2023-01-26T23:12:07.139Z,100905.98
2023-01-26T23:14:39.712Z,100910.83
2023-01-26T23:17:14.407Z,100912.11
2023-01-26T23:19:49.671Z,100908.31
2023-01-26T23:22:23.915Z,100904.81
2023-01-26T23:25:14.958Z,100906.83
2023-01-26T23:27:49.309Z,100900.75
2023-01-26T23:30:22.790Z,100908.22
2023-01-26T23:32:55.190Z,100903.19
2023-01-26T23:35:27.762Z,100900.92
2023-01-26T23:38:01.867Z,100901.75
2023-01-26T23:40:40.485Z,100902.20
2023-01-26T23:43:17.134Z,100900.92
2023-01-26T23:45:48.286Z,100896.69
2023-01-26T23:48:21.839Z,100903.30
2023-01-26T23:51:22.267Z,100893.53
2023-01-26T23:53:56.046Z,100897.97
2023-01-26T23:56:28.958Z,100893.13
2023-01-26T23:59:01.917Z,100897.91
